Time;durP1;ratioP1;P1;durP2;ratioP2;P2;SDS_P1;SDS_P2;PMS_P1;PMS_P2;Temp;Humidity;BMP_temperature;BMP_pressure;BME280_temperature;BME280_humidity;BME280_pressure;Samples;Min_cycle;Max_cycle;Signal;HPM_P1;HPM_P2
2023/12/31 00:00:34;;;;;;;316.20;150.02;;;2.10;99.90;;;;;;4997823;28;20022;-52
2023/12/31 00:03:01;;;;;;;290.65;135.55;;;2.00;99.90;;;;;;4997556;28;20487;-53
2023/12/31 00:05:29;;;;;;;328.95;153.93;;;1.90;99.90;;;;;;4997647;28;20038;-52
2023/12/31 00:07:55;;;;;;;328.65;151.20;;;1.90;99.90;;;;;;4997799;28;20392;-53
2023/12/31 00:10:21;;;;;;;347.65;158.82;;;2.10;99.90;;;;;;4997556;28;20022;-52
2023/12/31 00:12:47;;;;;;;324.00;148.80;;;2.10;99.90;;;;;;4997576;28;20076;-52
2023/12/31 00:15:14;;;;;;;323.25;146.68;;;2.20;99.90;;;;;;4997331;28;20440;-53
2023/12/31 00:17:39;;;;;;;335.23;153.45;;;2.30;99.90;;;;;;4997214;28;20487;-53
2023/12/31 00:20:06;;;;;;;336.02;153.30;;;2.30;99.90;;;;;;4997432;28;20030;-52
2023/12/31 00:22:32;;;;;;;336.95;154.77;;;2.40;99.90;;;;;;4997312;28;20112;-53
2023/12/31 00:24:57;;;;;;;395.75;183.57;;;2.30;99.90;;;;;;4997292;28;20464;-52
2023/12/31 00:27:23;;;;;;;376.60;177.25;;;2.20;99.90;;;;;;4997272;28;20022;-53
2023/12/31 00:29:49;;;;;;;376.00;182.23;;;2.30;99.90;;;;;;4997159;28;20031;-53
2023/12/31 00:32:18;;;;;;;353.98;161.88;;;2.20;99.90;;;;;;4995106;28;20480;-53
2023/12/31 00:34:44;;;;;;;360.05;163.82;;;2.30;99.90;;;;;;4997120;28;20368;-53
2023/12/31 00:37:10;;;;;;;325.33;153.38;;;2.30;99.90;;;;;;4995706;28;20030;-53
2023/12/31 00:39:36;;;;;;;391.00;187.85;;;2.20;99.90;;;;;;4997014;28;20061;-53
2023/12/31 00:42:02;;;;;;;349.60;163.45;;;2.00;99.90;;;;;;4997118;28;20035;-52
2023/12/31 00:44:28;;;;;;;323.90;154.65;;;1.90;99.90;;;;;;4995594;28;20026;-52
2023/12/31 00:46:53;;;;;;;322.90;153.23;;;2.00;99.90;;;;;;4996966;28;20023;-53
2023/12/31 00:49:21;;;;;;;264.65;129.25;;;2.00;99.90;;;;;;4996941;28;20030;-53
2023/12/31 00:51:47;;;;;;;269.05;128.60;;;1.90;99.90;;;;;;4995405;28;20156;-53
2023/12/31 00:54:13;;;;;;;339.75;156.43;;;1.80;99.90;;;;;;4997073;28;20100;-52
2023/12/31 00:56:39;;;;;;;292.88;138.02;;;1.80;99.90;;;;;;4996668;28;20022;-52
2023/12/31 00:59:05;;;;;;;297.65;140.82;;;1.90;99.90;;;;;;4995409;28;20045;-53
2023/12/31 01:01:31;;;;;;;272.92;131.75;;;1.90;99.90;;;;;;4995299;28;20030;-52
2023/12/31 01:03:56;;;;;;;252.45;119.95;;;1.70;99.90;;;;;;4996594;28;20129;-53
2023/12/31 01:06:23;;;;;;;260.50;120.68;;;1.70;99.90;;;;;;4995270;28;20093;-52
2023/12/31 01:08:48;;;;;;;244.68;119.50;;;1.70;99.90;;;;;;4996543;28;20022;-53
2023/12/31 01:11:14;;;;;;;260.25;128.63;;;1.70;99.90;;;;;;4995289;28;20566;-53
2023/12/31 01:13:40;;;;;;;277.10;134.95;;;1.70;99.90;;;;;;4996328;28;20042;-52
2023/12/31 01:16:06;;;;;;;304.55;142.25;;;1.60;99.90;;;;;;4996333;28;20097;-53
2023/12/31 01:18:32;;;;;;;304.40;144.23;;;1.60;99.90;;;;;;4995181;28;20030;-52
2023/12/31 01:20:58;;;;;;;280.58;135.57;;;1.70;99.90;;;;;;4996391;28;20032;-52
2023/12/31 01:23:25;;;;;;;288.17;139.93;;;1.60;99.90;;;;;;4996239;28;20034;-52
2023/12/31 01:25:51;;;;;;;285.98;140.38;;;1.50;99.90;;;;;;4995064;28;20029;-53
2023/12/31 01:28:17;;;;;;;313.15;148.75;;;1.50;99.90;;;;;;4994921;28;20030;-53
2023/12/31 01:30:44;;;;;;;308.92;144.18;;;1.60;99.90;;;;;;4996110;28;20026;-53
2023/12/31 01:33:10;;;;;;;310.02;143.93;;;1.70;99.90;;;;;;4994963;28;20081;-53
2023/12/31 01:35:36;;;;;;;271.48;128.80;;;1.70;99.90;;;;;;4996221;28;20023;-53
2023/12/31 01:38:02;;;;;;;270.10;131.68;;;1.60;99.90;;;;;;4994844;28;20460;-52
2023/12/31 01:40:28;;;;;;;273.75;128.52;;;1.50;99.90;;;;;;4994860;28;20460;-52
2023/12/31 01:42:54;;;;;;;247.73;122.68;;;1.50;99.90;;;;;;4995993;28;20472;-52
2023/12/31 01:45:19;;;;;;;267.42;122.78;;;1.40;99.90;;;;;;4994747;28;20128;-53
2023/12/31 01:47:46;;;;;;;264.95;128.43;;;1.40;99.90;;;;;;4996055;28;20035;-53
2023/12/31 01:50:14;;;;;;;267.13;129.18;;;1.40;99.90;;;;;;4996095;28;20038;-52
2023/12/31 01:52:42;;;;;;;250.77;119.50;;;1.40;99.90;;;;;;4994636;28;20033;-53
2023/12/31 01:55:09;;;;;;;243.15;115.63;;;1.30;99.90;;;;;;4994782;28;20042;-52
2023/12/31 01:57:37;;;;;;;245.00;119.88;;;1.30;99.90;;;;;;4994630;28;20124;-52
2023/12/31 02:00:06;;;;;;;285.50;131.68;;;1.30;99.90;;;;;;4994560;28;20030;-52
2023/12/31 02:02:43;;;;;;;282.20;129.82;;;1.20;99.90;;;;;;4995746;28;20126;-53
2023/12/31 02:05:11;;;;;;;235.18;111.47;;;1.40;99.90;;;;;;4994534;28;20027;-52
2023/12/31 02:07:36;;;;;;;250.15;122.30;;;1.20;99.90;;;;;;4996067;28;20030;-52
2023/12/31 02:10:03;;;;;;;223.82;111.35;;;1.20;99.90;;;;;;4994605;28;20041;-52
2023/12/31 02:12:29;;;;;;;225.98;108.82;;;1.20;99.90;;;;;;4994489;28;20027;-52
2023/12/31 02:14:55;;;;;;;250.18;120.78;;;1.20;99.90;;;;;;4994779;28;20109;-52
2023/12/31 02:17:21;;;;;;;228.60;111.40;;;1.20;99.90;;;;;;4994381;28;20125;-53
2023/12/31 02:19:47;;;;;;;231.77;113.57;;;1.20;99.90;;;;;;4994490;28;20447;-52
2023/12/31 02:22:13;;;;;;;274.58;118.53;;;1.10;99.90;;;;;;4995634;28;20361;-52
2023/12/31 02:24:46;;;;;;;453.58;165.75;;;1.20;99.90;;;;;;4994333;28;20027;-53
2023/12/31 02:27:12;;;;;;;365.15;144.25;;;1.20;99.90;;;;;;4994513;28;20023;-52
2023/12/31 02:29:38;;;;;;;346.63;134.63;;;1.10;99.90;;;;;;4995619;28;20425;-53
2023/12/31 02:32:04;;;;;;;362.77;140.88;;;1.10;99.90;;;;;;4995628;28;20026;-52
2023/12/31 02:34:31;;;;;;;359.63;138.45;;;1.10;99.90;;;;;;4995669;28;20113;-52
2023/12/31 02:36:57;;;;;;;382.02;146.30;;;1.10;99.90;;;;;;4994242;28;20038;-52
2023/12/31 02:39:24;;;;;;;359.35;138.45;;;1.10;99.90;;;;;;4994449;28;20026;-52
2023/12/31 02:41:50;;;;;;;363.48;141.98;;;1.10;99.90;;;;;;4994372;28;20113;-52
2023/12/31 02:44:17;;;;;;;320.90;130.73;;;1.10;99.90;;;;;;4994091;28;20034;-52
2023/12/31 02:46:43;;;;;;;272.17;112.00;;;1.00;99.90;;;;;;4994242;28;20049;-52
2023/12/31 02:49:11;;;;;;;201.13;96.65;;;1.00;99.90;;;;;;4994249;28;20026;-52
2023/12/31 02:51:40;;;;;;;182.77;88.20;;;1.00;99.90;;;;;;4995488;28;20380;-52
2023/12/31 02:54:06;;;;;;;194.70;94.50;;;0.90;99.90;;;;;;4994408;28;20042;-52
2023/12/31 02:56:39;;;;;;;194.02;90.75;;;0.90;99.90;;;;;;4998896;28;20026;-52
2023/12/31 02:59:05;;;;;;;208.27;95.25;;;0.90;99.90;;;;;;4997828;28;20094;-52
2023/12/31 03:01:32;;;;;;;199.90;95.70;;;0.90;99.90;;;;;;4997651;28;20038;-52
2023/12/31 03:03:58;;;;;;;220.65;104.18;;;0.80;99.90;;;;;;4997500;28;20530;-52
2023/12/31 03:06:28;;;;;;;219.30;103.38;;;0.80;99.90;;;;;;4997573;28;20034;-52
2023/12/31 03:08:58;;;;;;;229.57;104.03;;;0.70;99.90;;;;;;4998681;28;20129;-52
2023/12/31 03:11:25;;;;;;;233.82;105.43;;;0.70;99.90;;;;;;4997481;28;20404;-52
2023/12/31 03:13:51;;;;;;;229.77;107.13;;;0.70;99.90;;;;;;4997656;28;20030;-52
2023/12/31 03:16:17;;;;;;;237.95;107.53;;;0.60;99.90;;;;;;4997282;28;20506;-52
2023/12/31 03:18:43;;;;;;;289.33;127.70;;;0.60;99.90;;;;;;4998519;28;20510;-53
2023/12/31 03:21:15;;;;;;;275.23;121.53;;;0.70;99.90;;;;;;4998537;28;20035;-52
2023/12/31 03:23:42;;;;;;;253.60;116.22;;;0.70;99.90;;;;;;4998476;28;20029;-52
2023/12/31 03:26:08;;;;;;;250.35;113.43;;;0.70;99.90;;;;;;4998690;28;20057;-52
2023/12/31 03:28:33;;;;;;;271.90;120.53;;;0.60;99.90;;;;;;4998337;28;20022;-52
2023/12/31 03:30:59;;;;;;;240.65;111.25;;;0.60;99.90;;;;;;4997210;28;20038;-52
2023/12/31 03:33:26;;;;;;;248.90;117.72;;;0.70;99.90;;;;;;4998383;28;20026;-52
2023/12/31 03:35:52;;;;;;;237.02;112.47;;;0.80;99.90;;;;;;4997069;28;20113;-52
2023/12/31 03:38:18;;;;;;;241.82;115.22;;;0.70;99.90;;;;;;4996800;28;20464;-52
2023/12/31 03:40:44;;;;;;;246.60;115.88;;;0.60;99.90;;;;;;4996932;28;20034;-52
2023/12/31 03:43:10;;;;;;;228.38;109.28;;;0.50;99.90;;;;;;4996611;28;20065;-52
2023/12/31 03:45:36;;;;;;;207.40;102.65;;;0.50;99.90;;;;;;4998125;28;20022;-52
2023/12/31 03:48:02;;;;;;;228.07;110.97;;;0.50;99.90;;;;;;4998075;28;20026;-52
2023/12/31 03:50:28;;;;;;;225.98;108.32;;;0.50;99.90;;;;;;4996756;28;20109;-52
2023/12/31 03:52:55;;;;;;;239.60;115.65;;;0.50;99.90;;;;;;4996431;28;20372;-52
2023/12/31 03:55:20;;;;;;;234.45;113.70;;;0.60;99.90;;;;;;4996775;28;20309;-52
2023/12/31 03:57:46;;;;;;;245.70;119.40;;;0.60;99.90;;;;;;4996623;28;20098;-52
2023/12/31 04:00:13;;;;;;;221.20;109.93;;;0.60;99.90;;;;;;4996616;28;20030;-52
2023/12/31 04:02:38;;;;;;;219.18;102.70;;;0.60;99.90;;;;;;4996459;28;20384;-52
2023/12/31 04:05:05;;;;;;;227.15;105.53;;;0.60;99.90;;;;;;4997563;28;20031;-53
2023/12/31 04:07:32;;;;;;;237.88;115.50;;;0.60;99.90;;;;;;4996991;28;20044;-52
2023/12/31 04:09:57;;;;;;;203.18;99.32;;;0.60;99.90;;;;;;4997688;28;20097;-52
2023/12/31 04:12:23;;;;;;;194.13;92.22;;;0.60;99.90;;;;;;4996093;28;20030;-52
2023/12/31 04:14:49;;;;;;;216.60;106.15;;;0.60;99.90;;;;;;4996305;28;20034;-52
2023/12/31 04:17:15;;;;;;;206.02;100.53;;;0.70;99.90;;;;;;4997412;28;20369;-52
2023/12/31 04:19:41;;;;;;;199.35;98.63;;;0.70;99.90;;;;;;4997487;28;20392;-53
2023/12/31 04:22:07;;;;;;;192.05;93.40;;;0.60;99.90;;;;;;4996105;28;20057;-52
2023/12/31 04:24:33;;;;;;;199.52;97.80;;;0.60;99.90;;;;;;4996074;28;20092;-52
2023/12/31 04:26:59;;;;;;;202.80;94.20;;;0.50;99.90;;;;;;4997271;28;20500;-53
2023/12/31 04:29:25;;;;;;;189.77;92.40;;;0.40;99.90;;;;;;4997436;28;20027;-52
2023/12/31 04:31:51;;;;;;;179.23;85.35;;;0.40;99.90;;;;;;4997209;28;20033;-52
2023/12/31 04:34:17;;;;;;;181.07;86.35;;;0.30;99.90;;;;;;4997232;28;20034;-52
2023/12/31 04:36:46;;;;;;;192.00;93.80;;;0.40;99.90;;;;;;4996968;28;20030;-52
2023/12/31 04:39:12;;;;;;;196.07;93.82;;;0.30;99.90;;;;;;4997242;28;20464;-52
2023/12/31 04:41:38;;;;;;;206.85;96.97;;;0.40;99.90;;;;;;4995695;28;20041;-53
2023/12/31 04:44:04;;;;;;;201.25;91.28;;;0.30;99.90;;;;;;4996955;28;20034;-52
2023/12/31 04:46:30;;;;;;;183.82;87.88;;;0.30;99.90;;;;;;4995740;28;20022;-52
2023/12/31 04:48:56;;;;;;;183.00;87.72;;;0.40;99.90;;;;;;4996928;28;20357;-52
2023/12/31 04:51:29;;;;;;;165.77;77.47;;;0.40;99.90;;;;;;4995613;28;20026;-52
2023/12/31 04:53:56;;;;;;;163.25;79.47;;;0.40;99.90;;;;;;4996746;28;20046;-52
2023/12/31 04:56:26;;;;;;;164.75;81.00;;;0.40;99.90;;;;;;4995452;28;20053;-52
2023/12/31 04:58:56;;;;;;;178.32;85.10;;;0.30;99.90;;;;;;4996856;28;20030;-52
2023/12/31 05:01:32;;;;;;;166.40;78.82;;;0.30;99.90;;;;;;4995425;28;20034;-52
2023/12/31 05:03:59;;;;;;;171.60;83.03;;;0.30;99.90;;;;;;4996550;28;20034;-52
2023/12/31 05:06:25;;;;;;;187.70;92.40;;;0.50;99.90;;;;;;4996611;28;20023;-52
2023/12/31 05:08:51;;;;;;;195.20;94.28;;;0.30;99.90;;;;;;4996631;28;20022;-52
2023/12/31 05:11:17;;;;;;;183.90;87.88;;;0.30;99.90;;;;;;4996525;28;20041;-52
2023/12/31 05:13:43;;;;;;;184.32;89.30;;;0.30;99.90;;;;;;4996410;28;20333;-52
2023/12/31 05:16:14;;;;;;;171.65;82.88;;;0.30;99.90;;;;;;4996252;28;20062;-53
2023/12/31 05:18:46;;;;;;;165.02;79.30;;;0.30;99.90;;;;;;4996149;28;20076;-52
2023/12/31 05:21:12;;;;;;;153.70;73.68;;;0.30;99.90;;;;;;4996437;28;20030;-52
2023/12/31 05:23:41;;;;;;;169.20;80.97;;;0.30;99.90;;;;;;4996325;28;20031;-52
2023/12/31 05:26:08;;;;;;;174.30;83.50;;;0.30;99.90;;;;;;4996550;28;20050;-52
2023/12/31 05:28:34;;;;;;;169.68;80.50;;;0.30;99.90;;;;;;4996340;28;20039;-52
2023/12/31 05:31:00;;;;;;;177.18;84.07;;;0.40;99.90;;;;;;4996287;28;20106;-52
2023/12/31 05:33:26;;;;;;;158.88;74.82;;;0.30;99.90;;;;;;4996227;28;20494;-52
2023/12/31 05:35:52;;;;;;;157.18;78.68;;;0.30;99.90;;;;;;4996250;28;20022;-52
2023/12/31 05:38:18;;;;;;;161.75;75.68;;;0.40;99.90;;;;;;4996021;28;20034;-52
2023/12/31 05:40:44;;;;;;;154.70;74.22;;;0.50;99.90;;;;;;4996144;28;20057;-52
2023/12/31 05:43:10;;;;;;;157.45;74.72;;;0.60;99.90;;;;;;4995954;28;20041;-52
2023/12/31 05:45:37;;;;;;;151.73;74.43;;;0.50;99.90;;;;;;4996124;28;20080;-52
2023/12/31 05:48:03;;;;;;;163.57;76.85;;;0.50;99.90;;;;;;4996258;28;20027;-52
2023/12/31 05:50:29;;;;;;;174.02;83.90;;;0.60;99.90;;;;;;4996224;28;20103;-52
2023/12/31 05:52:54;;;;;;;166.73;79.75;;;0.60;99.90;;;;;;4996051;28;20031;-53
2023/12/31 05:55:21;;;;;;;160.95;78.45;;;0.60;99.90;;;;;;4996214;28;20101;-52
2023/12/31 05:57:46;;;;;;;168.40;78.13;;;0.70;99.90;;;;;;4995958;28;20030;-52
2023/12/31 06:00:13;;;;;;;156.57;75.63;;;0.80;99.90;;;;;;4996225;28;20042;-52
2023/12/31 06:02:40;;;;;;;174.05;78.07;;;0.80;99.90;;;;;;4995874;28;20088;-52
2023/12/31 06:05:07;;;;;;;175.57;78.80;;;0.90;99.90;;;;;;4995863;28;20030;-52
2023/12/31 06:07:34;;;;;;;169.68;76.03;;;0.90;99.90;;;;;;4995853;28;20061;-52
2023/12/31 06:09:59;;;;;;;173.35;75.07;;;0.70;99.90;;;;;;4995957;28;20030;-52
2023/12/31 06:12:26;;;;;;;147.70;69.75;;;0.60;99.90;;;;;;4995864;28;20122;-52
2023/12/31 06:14:51;;;;;;;158.50;70.45;;;0.50;99.90;;;;;;4995852;28;20030;-52
2023/12/31 06:17:17;;;;;;;167.38;76.70;;;0.40;99.90;;;;;;4995582;28;20050;-52
2023/12/31 06:19:43;;;;;;;169.25;77.63;;;0.40;99.90;;;;;;4995848;28;20073;-52
2023/12/31 06:22:10;;;;;;;179.45;80.05;;;0.40;99.90;;;;;;4995775;28;20026;-52
2023/12/31 06:24:36;;;;;;;180.32;74.53;;;0.40;99.90;;;;;;4995934;28;20037;-52
2023/12/31 06:27:02;;;;;;;168.80;72.80;;;0.50;99.90;;;;;;4995610;28;20022;-52
2023/12/31 06:29:28;;;;;;;167.07;73.65;;;0.50;99.90;;;;;;4996656;28;20117;-52
2023/12/31 06:31:53;;;;;;;165.35;70.95;;;0.50;99.90;;;;;;4999448;28;20031;-52
2023/12/31 06:34:19;;;;;;;148.02;68.95;;;0.50;99.90;;;;;;4999480;28;20042;-52
2023/12/31 06:36:45;;;;;;;165.48;71.00;;;0.50;99.90;;;;;;4999157;28;20034;-52
2023/12/31 06:39:11;;;;;;;163.73;73.18;;;0.40;99.90;;;;;;4999444;28;20037;-52
2023/12/31 06:41:37;;;;;;;164.73;71.93;;;0.20;99.90;;;;;;4999265;28;20034;-52
2023/12/31 06:44:03;;;;;;;147.57;68.63;;;0.30;99.90;;;;;;4999217;28;20030;-52
2023/12/31 06:46:29;;;;;;;169.25;78.68;;;0.30;99.90;;;;;;4999125;28;20034;-52
2023/12/31 06:48:56;;;;;;;171.07;80.70;;;0.40;99.90;;;;;;4999013;28;20088;-52
2023/12/31 06:51:22;;;;;;;162.20;68.70;;;0.40;99.90;;;;;;4997988;28;20068;-52
2023/12/31 06:53:48;;;;;;;153.70;70.68;;;0.60;99.90;;;;;;4999041;28;20468;-52
2023/12/31 06:56:17;;;;;;;199.40;81.95;;;0.70;99.90;;;;;;4998987;28;20034;-52
2023/12/31 06:58:43;;;;;;;248.95;91.07;;;0.60;99.90;;;;;;4998916;28;20475;-52
2023/12/31 07:01:09;;;;;;;168.10;70.72;;;0.70;99.90;;;;;;4999220;28;20027;-52
2023/12/31 07:03:35;;;;;;;214.48;84.90;;;0.80;99.90;;;;;;4999051;28;20045;-53
2023/12/31 07:06:01;;;;;;;180.63;73.78;;;0.90;99.90;;;;;;4998915;28;20057;-53
2023/12/31 07:08:27;;;;;;;173.57;74.10;;;0.80;99.90;;;;;;4998763;28;20042;-53
2023/12/31 07:10:54;;;;;;;174.45;70.55;;;0.90;99.90;;;;;;4998761;28;20059;-53
2023/12/31 07:13:20;;;;;;;194.80;80.72;;;1.00;99.90;;;;;;4998700;28;20029;-53
2023/12/31 07:15:46;;;;;;;201.13;89.88;;;1.10;99.90;;;;;;4998713;28;20034;-53
2023/12/31 07:18:12;;;;;;;236.80;104.05;;;1.20;99.90;;;;;;4998479;28;20161;-53
2023/12/31 07:20:38;;;;;;;219.88;104.03;;;1.30;99.90;;;;;;4998624;28;20027;-53
2023/12/31 07:23:04;;;;;;;202.80;94.53;;;1.40;99.90;;;;;;4998608;28;20026;-53
2023/12/31 07:25:32;;;;;;;169.50;82.38;;;1.50;99.90;;;;;;4998489;28;20122;-53
2023/12/31 07:27:58;;;;;;;229.45;98.35;;;1.70;99.90;;;;;;4998365;28;20121;-52
2023/12/31 07:30:25;;;;;;;184.75;84.15;;;1.80;99.90;;;;;;4998432;28;20048;-53
2023/12/31 07:32:51;;;;;;;752.85;129.63;;;1.90;99.90;;;;;;4998445;28;20060;-53
2023/12/31 07:35:17;;;;;;;461.15;104.18;;;2.10;99.90;;;;;;4998438;28;20022;-52
2023/12/31 07:37:43;;;;;;;394.35;100.95;;;2.40;99.90;;;;;;4998316;28;20028;-53
2023/12/31 07:40:10;;;;;;;175.65;82.57;;;2.50;99.90;;;;;;4997833;28;20065;-53
2023/12/31 07:42:40;;;;;;;216.50;81.90;;;2.70;99.90;;;;;;4998202;28;20086;-52
2023/12/31 07:45:06;;;;;;;225.43;84.18;;;2.90;99.90;;;;;;4998037;28;20369;-52
2023/12/31 07:47:35;;;;;;;185.70;82.57;;;3.00;99.90;;;;;;4998053;28;20026;-52
2023/12/31 07:50:04;;;;;;;174.38;82.78;;;3.10;99.90;;;;;;4998144;28;20452;-53
2023/12/31 07:52:30;;;;;;;158.02;77.30;;;3.20;99.90;;;;;;4997611;28;20022;-53
2023/12/31 07:54:56;;;;;;;163.38;76.30;;;3.50;99.90;;;;;;4998013;28;20034;-52
2023/12/31 07:57:22;;;;;;;164.35;78.65;;;4.30;99.90;;;;;;4996608;28;20037;-53
2023/12/31 07:59:47;;;;;;;187.10;89.00;;;5.70;99.90;;;;;;4997918;28;20041;-53
2023/12/31 08:02:13;;;;;;;183.70;90.80;;;6.80;99.90;;;;;;4997858;28;20030;-53
2023/12/31 08:04:39;;;;;;;160.32;76.57;;;8.10;97.40;;;;;;4997744;28;20435;-53
2023/12/31 08:07:05;;;;;;;143.32;72.43;;;9.10;94.70;;;;;;4997690;28;20034;-53
2023/12/31 08:09:31;;;;;;;138.73;71.25;;;9.80;92.70;;;;;;4997674;28;20054;-53
2023/12/31 08:11:57;;;;;;;124.60;68.35;;;10.60;90.00;;;;;;4997787;28;20039;-53
2023/12/31 08:14:23;;;;;;;131.38;70.32;;;9.70;88.20;;;;;;4997610;28;20035;-53
2023/12/31 08:16:50;;;;;;;131.25;68.45;;;10.80;86.60;;;;;;4997064;28;20038;-53
2023/12/31 08:19:16;;;;;;;128.60;67.68;;;11.70;80.90;;;;;;4997523;28;20090;-53
2023/12/31 08:21:42;;;;;;;125.90;68.55;;;12.20;76.40;;;;;;4997302;28;20034;-53
2023/12/31 08:24:08;;;;;;;135.85;71.50;;;12.30;73.00;;;;;;4997345;28;20078;-53
2023/12/31 08:26:36;;;;;;;126.00;70.57;;;11.20;75.70;;;;;;4997428;28;20030;-53
2023/12/31 08:29:03;;;;;;;122.15;61.75;;;11.90;73.50;;;;;;4997283;28;20472;-53
2023/12/31 08:31:29;;;;;;;113.10;60.42;;;11.00;72.40;;;;;;4997276;28;20121;-53
2023/12/31 08:33:55;;;;;;;113.07;60.25;;;11.40;79.30;;;;;;4997209;28;20026;-53
2023/12/31 08:36:21;;;;;;;109.00;60.95;;;10.80;76.50;;;;;;4996972;28;20026;-53
2023/12/31 08:38:46;;;;;;;118.28;66.07;;;11.70;73.70;;;;;;4997062;28;20034;-53
2023/12/31 08:41:12;;;;;;;117.50;67.22;;;11.70;74.20;;;;;;4997117;28;20544;-53
2023/12/31 08:43:38;;;;;;;132.00;74.50;;;12.00;73.00;;;;;;4996934;28;20036;-53
2023/12/31 08:46:04;;;;;;;132.32;75.60;;;12.40;72.50;;;;;;4996963;28;20046;-53
2023/12/31 08:48:30;;;;;;;124.07;73.25;;;14.10;65.70;;;;;;4996958;28;20049;-53
2023/12/31 08:50:56;;;;;;;126.32;73.55;;;14.60;60.20;;;;;;4996934;28;20022;-53
2023/12/31 08:53:22;;;;;;;125.28;72.95;;;14.90;58.50;;;;;;4996128;28;20536;-53
2023/12/31 08:55:48;;;;;;;121.13;73.97;;;14.60;58.90;;;;;;4996879;28;20384;-53
2023/12/31 08:58:14;;;;;;;136.70;73.97;;;14.50;58.40;;;;;;4996779;28;20029;-53
2023/12/31 09:00:41;;;;;;;123.00;71.20;;;13.20;62.80;;;;;;4996744;28;20030;-53
2023/12/31 09:03:06;;;;;;;136.93;82.63;;;13.60;64.10;;;;;;4996916;28;20033;-53
2023/12/31 09:05:32;;;;;;;131.18;79.40;;;13.80;61.90;;;;;;4996549;28;20039;-53
2023/12/31 09:07:58;;;;;;;140.98;84.25;;;13.60;63.20;;;;;;4996581;28;20077;-53
2023/12/31 09:10:25;;;;;;;133.57;81.35;;;13.60;64.10;;;;;;4996478;28;20452;-53
2023/12/31 09:12:51;;;;;;;146.10;79.28;;;14.30;62.40;;;;;;4996569;28;20371;-53
2023/12/31 09:15:17;;;;;;;126.10;74.47;;;15.10;59.40;;;;;;4996497;28;20037;-53
2023/12/31 09:17:43;;;;;;;119.45;72.60;;;15.20;60.30;;;;;;4996326;28;20064;-53
2023/12/31 09:20:09;;;;;;;125.32;72.57;;;15.10;57.50;;;;;;4996357;28;20034;-53
2023/12/31 09:22:35;;;;;;;111.05;67.15;;;15.20;60.00;;;;;;4996284;28;20027;-53
2023/12/31 09:25:02;;;;;;;105.10;68.25;;;15.30;58.80;;;;;;4996383;28;20516;-53
2023/12/31 09:27:28;;;;;;;107.85;69.38;;;15.30;57.50;;;;;;4996298;28;20479;-53
2023/12/31 09:29:53;;;;;;;116.72;71.60;;;15.80;57.40;;;;;;4996287;28;20030;-53
2023/12/31 09:32:19;;;;;;;115.78;72.93;;;16.00;56.00;;;;;;4996301;28;20023;-53
2023/12/31 09:34:45;;;;;;;124.18;77.57;;;16.00;57.20;;;;;;4996201;28;20034;-53
2023/12/31 09:37:16;;;;;;;119.63;74.65;;;16.50;54.80;;;;;;4996168;28;20117;-53
2023/12/31 09:39:42;;;;;;;118.63;73.18;;;16.30;55.40;;;;;;4996267;28;20065;-53
2023/12/31 09:42:12;;;;;;;107.38;71.55;;;16.90;55.80;;;;;;4996243;28;20043;-53
2023/12/31 09:44:40;;;;;;;100.27;64.23;;;17.20;52.90;;;;;;4996182;28;20026;-53
2023/12/31 09:47:08;;;;;;;92.75;60.55;;;17.40;53.30;;;;;;4996322;28;20256;-53
2023/12/31 09:49:35;;;;;;;95.40;59.72;;;17.70;53.10;;;;;;4996069;28;20023;-53
2023/12/31 09:52:07;;;;;;;93.78;60.17;;;17.80;53.60;;;;;;4996009;28;20034;-53
2023/12/31 09:54:35;;;;;;;86.22;56.20;;;17.70;51.90;;;;;;4995896;28;20053;-53
2023/12/31 09:57:01;;;;;;;87.55;57.63;;;17.60;51.70;;;;;;4996006;28;20077;-53
2023/12/31 09:59:31;;;;;;;93.28;55.50;;;17.70;53.60;;;;;;4995905;28;20038;-53
2023/12/31 10:02:07;;;;;;;82.97;50.47;;;18.30;51.60;;;;;;4995963;28;20494;-53
2023/12/31 10:04:33;;;;;;;66.68;44.50;;;18.40;50.40;;;;;;4998687;28;20026;-53
2023/12/31 10:06:59;;;;;;;55.83;35.45;;;18.30;51.60;;;;;;5000096;28;20520;-53
2023/12/31 10:09:30;;;;;;;53.97;34.33;;;18.60;49.70;;;;;;5000380;28;20061;-53
2023/12/31 10:11:56;;;;;;;44.83;31.23;;;18.70;50.40;;;;;;4999836;28;20035;-53
2023/12/31 10:14:25;;;;;;;59.70;38.33;;;18.60;50.20;;;;;;4999766;28;20038;-54
2023/12/31 10:16:51;;;;;;;70.10;45.50;;;18.70;49.80;;;;;;4999407;28;20050;-54
2023/12/31 10:19:17;;;;;;;74.65;47.33;;;18.70;50.40;;;;;;4999750;28;20388;-53
2023/12/31 10:21:43;;;;;;;87.97;59.47;;;19.10;49.30;;;;;;4999668;28;20496;-54
2023/12/31 10:24:09;;;;;;;92.45;59.85;;;19.90;48.90;;;;;;4999500;28;20030;-54
2023/12/31 10:26:36;;;;;;;89.35;60.90;;;19.20;49.80;;;;;;4999458;28;20022;-54
2023/12/31 10:29:05;;;;;;;107.25;66.82;;;19.90;47.80;;;;;;4999628;28;20105;-54
2023/12/31 10:31:32;;;;;;;98.95;66.05;;;19.80;47.00;;;;;;4999954;28;20033;-54
2023/12/31 10:34:17;;;;;;;99.10;62.13;;;19.00;47.70;;;;;;4999516;28;20484;-54
2023/12/31 10:36:46;;;;;;;89.95;58.63;;;18.90;48.60;;;;;;4999249;28;20026;-54
2023/12/31 10:39:27;;;;;;;98.13;60.87;;;18.80;49.10;;;;;;4999292;28;20041;-54
2023/12/31 10:41:58;;;;;;;88.60;56.45;;;18.60;49.80;;;;;;4999099;28;20031;-54
2023/12/31 10:44:25;;;;;;;76.88;50.17;;;18.70;48.70;;;;;;4999459;28;20117;-54
2023/12/31 10:46:56;;;;;;;86.75;54.20;;;18.70;49.10;;;;;;4999161;28;20019;-54
2023/12/31 10:49:23;;;;;;;79.68;51.17;;;19.10;50.10;;;;;;4999291;28;20029;-54
2023/12/31 10:51:53;;;;;;;87.63;53.53;;;18.90;50.20;;;;;;4999394;28;20033;-54
2023/12/31 10:54:42;;;;;;;76.65;51.30;;;20.00;48.30;;;;;;4998922;28;20507;-54
2023/12/31 10:57:09;;;;;;;77.05;50.05;;;20.40;45.90;;;;;;4998998;28;20365;-54
2023/12/31 10:59:36;;;;;;;81.25;54.33;;;20.60;45.70;;;;;;4998980;28;20033;-54
2023/12/31 11:02:05;;;;;;;82.43;54.60;;;20.60;44.50;;;;;;4998951;28;20038;-54
2023/12/31 11:04:32;;;;;;;80.85;51.55;;;20.30;45.30;;;;;;4998820;28;20157;-54
2023/12/31 11:07:03;;;;;;;69.30;46.90;;;20.30;46.40;;;;;;4998831;28;20039;-54
2023/12/31 11:09:31;;;;;;;86.85;53.97;;;20.10;44.70;;;;;;4998819;28;20113;-54
2023/12/31 11:11:57;;;;;;;89.65;55.28;;;19.60;44.00;;;;;;4998722;28;20026;-54
2023/12/31 11:14:29;;;;;;;92.63;56.17;;;19.50;46.60;;;;;;4998813;28;20080;-54
2023/12/31 11:17:19;;;;;;;85.28;56.40;;;19.60;48.90;;;;;;4997880;28;20089;-54
2023/12/31 11:20:16;;;;;;;88.57;55.67;;;20.30;44.30;;;;;;4998626;28;20504;-54
2023/12/31 11:22:54;;;;;;;93.90;54.88;;;20.80;43.60;;;;;;4996841;28;20045;-54
2023/12/31 11:25:21;;;;;;;83.05;53.38;;;20.30;44.40;;;;;;4998551;28;20030;-54
2023/12/31 11:27:50;;;;;;;76.25;49.67;;;19.80;45.40;;;;;;4998351;28;20022;-54
2023/12/31 11:30:35;;;;;;;74.32;46.40;;;19.80;44.60;;;;;;4998420;28;20018;-54
2023/12/31 11:33:02;;;;;;;58.45;41.00;;;20.30;44.40;;;;;;4998360;28;20085;-54
2023/12/31 11:35:50;;;;;;;54.90;37.95;;;21.10;42.10;;;;;;4998248;28;20065;-54
2023/12/31 11:38:16;;;;;;;66.25;41.10;;;20.80;40.30;;;;;;4998258;28;20063;-54
2023/12/31 11:40:42;;;;;;;70.32;43.83;;;21.40;41.40;;;;;;4998221;28;20038;-54
2023/12/31 11:43:19;;;;;;;73.90;45.33;;;22.00;39.80;;;;;;4998227;28;20042;-54
2023/12/31 11:45:48;;;;;;;77.28;51.15;;;22.10;40.30;;;;;;4998091;28;20575;-54
2023/12/31 11:48:19;;;;;;;81.07;49.47;;;22.30;39.60;;;;;;4998136;28;20034;-54
2023/12/31 11:50:53;;;;;;;76.35;50.22;;;21.80;40.60;;;;;;4998155;28;20026;-54
2023/12/31 11:53:25;;;;;;;82.38;51.10;;;22.20;39.60;;;;;;4998079;28;20057;-54
2023/12/31 11:55:56;;;;;;;79.15;50.55;;;21.90;41.70;;;;;;4998057;28;20038;-54
2023/12/31 11:58:22;;;;;;;73.82;49.95;;;22.30;39.60;;;;;;4997866;28;20026;-54
2023/12/31 12:00:52;;;;;;;77.65;51.92;;;22.30;39.80;;;;;;4997790;28;20034;-54
2023/12/31 12:03:19;;;;;;;76.32;50.28;;;22.10;40.40;;;;;;4998134;28;20022;-54
2023/12/31 12:05:50;;;;;;;85.82;51.22;;;21.80;39.50;;;;;;4997680;28;20169;-54
2023/12/31 12:08:16;;;;;;;74.93;49.42;;;21.20;40.50;;;;;;4997848;28;20026;-54
2023/12/31 12:10:43;;;;;;;80.90;51.20;;;21.50;40.00;;;;;;4997518;28;20038;-54
2023/12/31 12:13:09;;;;;;;76.75;52.22;;;21.60;40.10;;;;;;4997633;28;20029;-54
2023/12/31 12:15:36;;;;;;;86.22;51.42;;;21.80;39.90;;;;;;4997653;28;20038;-54
2023/12/31 12:18:21;;;;;;;82.68;51.85;;;21.80;40.40;;;;;;4997468;28;20034;-54
2023/12/31 12:20:47;;;;;;;77.97;49.60;;;22.10;39.50;;;;;;4997491;28;20541;-54
2023/12/31 12:23:21;;;;;;;74.32;51.28;;;21.90;39.70;;;;;;4997371;28;20018;-54